sensor_id;sensor_type;location;lat;lon;timestamp;P1;durP1;ratioP1;P2;durP2;ratioP2
43226;SDS011;28839;52.404;9.808;2022-10-22T00:05:54;13.50;;;9.90;;
43226;SDS011;28839;52.404;9.808;2022-10-22T00:12:47;15.50;;;10.50;;
43226;SDS011;28839;52.404;9.808;2022-10-22T00:19:41;12.90;;;9.43;;
43226;SDS011;28839;52.404;9.808;2022-10-22T00:26:36;18.13;;;12.30;;
43226;SDS011;28839;52.404;9.808;2022-10-22T00:33:31;15.95;;;12.00;;
43226;SDS011;28839;52.404;9.808;2022-10-22T00:40:25;17.90;;;11.67;;
43226;SDS011;28839;52.404;9.808;2022-10-22T00:47:20;15.20;;;12.00;;
43226;SDS011;28839;52.404;9.808;2022-10-22T00:54:15;17.65;;;10.48;;
43226;SDS011;28839;52.404;9.808;2022-10-22T01:01:11;15.33;;;10.90;;
43226;SDS011;28839;52.404;9.808;2022-10-22T01:08:10;17.52;;;12.02;;
43226;SDS011;28839;52.404;9.808;2022-10-22T01:15:17;13.60;;;10.05;;
43226;SDS011;28839;52.404;9.808;2022-10-22T01:22:17;14.43;;;9.75;;
43226;SDS011;28839;52.404;9.808;2022-10-22T01:29:18;17.98;;;12.20;;
43226;SDS011;28839;52.404;9.808;2022-10-22T01:36:18;16.60;;;11.68;;
43226;SDS011;28839;52.404;9.808;2022-10-22T01:43:13;15.57;;;11.27;;
43226;SDS011;28839;52.404;9.808;2022-10-22T01:57:30;22.37;;;12.73;;
43226;SDS011;28839;52.404;9.808;2022-10-22T02:04:38;17.62;;;11.18;;
43226;SDS011;28839;52.404;9.808;2022-10-22T02:11:38;15.27;;;10.57;;
43226;SDS011;28839;52.404;9.808;2022-10-22T02:18:33;13.02;;;10.68;;
43226;SDS011;28839;52.404;9.808;2022-10-22T02:25:30;12.98;;;9.95;;
43226;SDS011;28839;52.404;9.808;2022-10-22T02:32:29;13.50;;;10.48;;
43226;SDS011;28839;52.404;9.808;2022-10-22T02:39:28;13.40;;;10.75;;
43226;SDS011;28839;52.404;9.808;2022-10-22T02:46:23;14.65;;;10.98;;
43226;SDS011;28839;52.404;9.808;2022-10-22T03:00:13;18.85;;;10.70;;
43226;SDS011;28839;52.404;9.808;2022-10-22T03:07:07;18.02;;;11.18;;
43226;SDS011;28839;52.404;9.808;2022-10-22T03:14:03;16.53;;;11.07;;
43226;SDS011;28839;52.404;9.808;2022-10-22T03:20:59;15.60;;;10.45;;
43226;SDS011;28839;52.404;9.808;2022-10-22T03:27:56;13.38;;;10.48;;
43226;SDS011;28839;52.404;9.808;2022-10-22T03:34:56;14.48;;;10.52;;
43226;SDS011;28839;52.404;9.808;2022-10-22T03:41:50;16.40;;;9.60;;
43226;SDS011;28839;52.404;9.808;2022-10-22T03:48:45;14.00;;;10.02;;
43226;SDS011;28839;52.404;9.808;2022-10-22T03:55:40;10.00;;;8.40;;
43226;SDS011;28839;52.404;9.808;2022-10-22T04:02:34;13.32;;;9.50;;
43226;SDS011;28839;52.404;9.808;2022-10-22T04:09:29;11.97;;;9.73;;
43226;SDS011;28839;52.404;9.808;2022-10-22T04:16:24;16.12;;;9.98;;
43226;SDS011;28839;52.404;9.808;2022-10-22T04:23:22;13.32;;;10.45;;
43226;SDS011;28839;52.404;9.808;2022-10-22T04:30:15;15.80;;;10.13;;
43226;SDS011;28839;52.404;9.808;2022-10-22T04:37:11;15.13;;;10.70;;
43226;SDS011;28839;52.404;9.808;2022-10-22T04:44:05;11.27;;;8.93;;
43226;SDS011;28839;52.404;9.808;2022-10-22T04:50:59;11.43;;;8.13;;
43226;SDS011;28839;52.404;9.808;2022-10-22T04:57:54;13.13;;;8.67;;
43226;SDS011;28839;52.404;9.808;2022-10-22T05:04:48;13.80;;;8.45;;
43226;SDS011;28839;52.404;9.808;2022-10-22T05:11:43;15.83;;;8.67;;
43226;SDS011;28839;52.404;9.808;2022-10-22T05:18:41;14.70;;;10.10;;
43226;SDS011;28839;52.404;9.808;2022-10-22T05:25:36;14.10;;;10.02;;
43226;SDS011;28839;52.404;9.808;2022-10-22T05:32:30;13.00;;;10.30;;
43226;SDS011;28839;52.404;9.808;2022-10-22T05:39:25;12.27;;;9.37;;
43226;SDS011;28839;52.404;9.808;2022-10-22T05:46:20;13.02;;;11.32;;
43226;SDS011;28839;52.404;9.808;2022-10-22T05:53:15;24.55;;;14.57;;
43226;SDS011;28839;52.404;9.808;2022-10-22T06:00:11;20.20;;;14.27;;
43226;SDS011;28839;52.404;9.808;2022-10-22T06:07:07;26.90;;;14.27;;
43226;SDS011;28839;52.404;9.808;2022-10-22T06:14:06;16.58;;;11.12;;
43226;SDS011;28839;52.404;9.808;2022-10-22T06:21:04;22.30;;;13.50;;
43226;SDS011;28839;52.404;9.808;2022-10-22T06:27:58;22.20;;;13.13;;
43226;SDS011;28839;52.404;9.808;2022-10-22T06:34:52;18.77;;;12.93;;
43226;SDS011;28839;52.404;9.808;2022-10-22T06:41:47;18.83;;;12.50;;
43226;SDS011;28839;52.404;9.808;2022-10-22T06:48:41;20.60;;;12.82;;
43226;SDS011;28839;52.404;9.808;2022-10-22T06:55:35;19.35;;;12.23;;
43226;SDS011;28839;52.404;9.808;2022-10-22T07:02:31;19.03;;;12.73;;
43226;SDS011;28839;52.404;9.808;2022-10-22T07:09:25;17.48;;;12.73;;
43226;SDS011;28839;52.404;9.808;2022-10-22T07:16:19;17.73;;;11.67;;
43226;SDS011;28839;52.404;9.808;2022-10-22T07:23:14;13.10;;;11.53;;
43226;SDS011;28839;52.404;9.808;2022-10-22T07:30:08;19.35;;;12.25;;
43226;SDS011;28839;52.404;9.808;2022-10-22T07:37:02;15.85;;;12.15;;
43226;SDS011;28839;52.404;9.808;2022-10-22T07:43:57;14.00;;;10.67;;
43226;SDS011;28839;52.404;9.808;2022-10-22T07:50:51;17.25;;;10.40;;
43226;SDS011;28839;52.404;9.808;2022-10-22T07:57:45;16.47;;;9.70;;
43226;SDS011;28839;52.404;9.808;2022-10-22T08:04:40;12.43;;;10.60;;
43226;SDS011;28839;52.404;9.808;2022-10-22T08:11:34;11.10;;;8.60;;
43226;SDS011;28839;52.404;9.808;2022-10-22T08:18:29;10.75;;;7.03;;
43226;SDS011;28839;52.404;9.808;2022-10-22T08:25:24;9.13;;;7.20;;
43226;SDS011;28839;52.404;9.808;2022-10-22T08:32:18;9.52;;;6.10;;
43226;SDS011;28839;52.404;9.808;2022-10-22T08:39:12;9.80;;;6.07;;
43226;SDS011;28839;52.404;9.808;2022-10-22T08:46:17;9.63;;;5.77;;
43226;SDS011;28839;52.404;9.808;2022-10-22T08:53:24;9.70;;;6.00;;
43226;SDS011;28839;52.404;9.808;2022-10-22T09:00:26;7.93;;;4.82;;
43226;SDS011;28839;52.404;9.808;2022-10-22T09:07:27;86.03;;;81.78;;
43226;SDS011;28839;52.404;9.808;2022-10-22T09:14:21;196.87;;;187.93;;
43226;SDS011;28839;52.404;9.808;2022-10-22T09:21:18;71.80;;;68.35;;
43226;SDS011;28839;52.404;9.808;2022-10-22T09:28:21;408.38;;;388.08;;
43226;SDS011;28839;52.404;9.808;2022-10-22T09:35:20;263.17;;;250.13;;
43226;SDS011;28839;52.404;9.808;2022-10-22T09:42:17;1544.80;;;976.95;;
43226;SDS011;28839;52.404;9.808;2022-10-22T09:49:14;954.00;;;628.90;;
43226;SDS011;28839;52.404;9.808;2022-10-22T09:56:15;4.32;;;2.87;;
43226;SDS011;28839;52.404;9.808;2022-10-22T10:03:16;78.22;;;74.20;;
43226;SDS011;28839;52.404;9.808;2022-10-22T10:10:16;6.05;;;2.72;;
43226;SDS011;28839;52.404;9.808;2022-10-22T10:17:15;7.20;;;5.47;;
43226;SDS011;28839;52.404;9.808;2022-10-22T10:24:19;8.33;;;2.60;;
43226;SDS011;28839;52.404;9.808;2022-10-22T10:31:19;4.82;;;3.45;;
43226;SDS011;28839;52.404;9.808;2022-10-22T10:38:29;9.65;;;3.08;;
43226;SDS011;28839;52.404;9.808;2022-10-22T10:45:31;8.55;;;3.42;;
43226;SDS011;28839;52.404;9.808;2022-10-22T10:52:35;6.65;;;2.90;;
43226;SDS011;28839;52.404;9.808;2022-10-22T10:59:40;6.80;;;3.08;;
43226;SDS011;28839;52.404;9.808;2022-10-22T11:06:41;7.35;;;2.97;;
43226;SDS011;28839;52.404;9.808;2022-10-22T11:13:39;10.15;;;4.22;;
43226;SDS011;28839;52.404;9.808;2022-10-22T11:20:43;5.28;;;3.03;;
43226;SDS011;28839;52.404;9.808;2022-10-22T11:27:45;8.38;;;3.25;;
43226;SDS011;28839;52.404;9.808;2022-10-22T11:34:44;12.18;;;3.17;;
43226;SDS011;28839;52.404;9.808;2022-10-22T11:41:40;5.45;;;2.67;;
43226;SDS011;28839;52.404;9.808;2022-10-22T11:48:37;6.10;;;2.75;;
43226;SDS011;28839;52.404;9.808;2022-10-22T11:55:40;8.50;;;2.95;;
43226;SDS011;28839;52.404;9.808;2022-10-22T12:02:39;5.90;;;2.45;;
43226;SDS011;28839;52.404;9.808;2022-10-22T12:09:34;6.30;;;2.50;;
43226;SDS011;28839;52.404;9.808;2022-10-22T12:16:37;7.85;;;2.30;;
43226;SDS011;28839;52.404;9.808;2022-10-22T12:23:33;6.72;;;2.08;;
43226;SDS011;28839;52.404;9.808;2022-10-22T12:30:37;7.32;;;2.97;;
43226;SDS011;28839;52.404;9.808;2022-10-22T12:37:34;8.65;;;2.53;;
43226;SDS011;28839;52.404;9.808;2022-10-22T12:44:29;9.55;;;3.00;;
43226;SDS011;28839;52.404;9.808;2022-10-22T12:51:25;7.40;;;2.67;;
43226;SDS011;28839;52.404;9.808;2022-10-22T12:58:21;8.50;;;2.28;;
43226;SDS011;28839;52.404;9.808;2022-10-22T13:05:20;8.25;;;3.12;;
43226;SDS011;28839;52.404;9.808;2022-10-22T13:12:23;12.18;;;2.53;;
43226;SDS011;28839;52.404;9.808;2022-10-22T13:26:42;9.63;;;3.27;;
43226;SDS011;28839;52.404;9.808;2022-10-22T13:33:42;6.65;;;2.55;;
43226;SDS011;28839;52.404;9.808;2022-10-22T13:40:38;11.95;;;4.68;;
43226;SDS011;28839;52.404;9.808;2022-10-22T13:47:33;6.90;;;2.95;;
43226;SDS011;28839;52.404;9.808;2022-10-22T13:54:27;4.65;;;2.65;;
43226;SDS011;28839;52.404;9.808;2022-10-22T14:01:21;6.93;;;2.87;;
43226;SDS011;28839;52.404;9.808;2022-10-22T14:08:19;8.45;;;2.90;;
43226;SDS011;28839;52.404;9.808;2022-10-22T14:15:16;9.93;;;2.90;;
43226;SDS011;28839;52.404;9.808;2022-10-22T14:22:12;6.78;;;2.40;;
43226;SDS011;28839;52.404;9.808;2022-10-22T14:29:08;4.90;;;2.03;;
43226;SDS011;28839;52.404;9.808;2022-10-22T14:36:02;9.43;;;3.17;;
43226;SDS011;28839;52.404;9.808;2022-10-22T14:42:56;6.90;;;2.40;;
43226;SDS011;28839;52.404;9.808;2022-10-22T14:49:51;6.07;;;2.50;;
43226;SDS011;28839;52.404;9.808;2022-10-22T14:56:45;12.75;;;3.78;;
43226;SDS011;28839;52.404;9.808;2022-10-22T15:03:39;8.68;;;3.30;;
43226;SDS011;28839;52.404;9.808;2022-10-22T15:10:34;5.60;;;3.08;;
43226;SDS011;28839;52.404;9.808;2022-10-22T15:17:28;7.15;;;2.67;;
43226;SDS011;28839;52.404;9.808;2022-10-22T15:24:22;6.23;;;2.10;;
43226;SDS011;28839;52.404;9.808;2022-10-22T15:31:17;7.27;;;2.80;;
43226;SDS011;28839;52.404;9.808;2022-10-22T15:38:36;4.80;;;2.25;;
43226;SDS011;28839;52.404;9.808;2022-10-22T15:45:30;6.23;;;2.13;;
43226;SDS011;28839;52.404;9.808;2022-10-22T15:52:25;6.87;;;2.37;;
43226;SDS011;28839;52.404;9.808;2022-10-22T15:59:19;5.97;;;2.10;;
43226;SDS011;28839;52.404;9.808;2022-10-22T16:06:13;11.80;;;2.57;;
43226;SDS011;28839;52.404;9.808;2022-10-22T16:13:08;9.47;;;2.20;;
43226;SDS011;28839;52.404;9.808;2022-10-22T16:20:03;7.80;;;2.90;;
43226;SDS011;28839;52.404;9.808;2022-10-22T16:26:57;6.18;;;2.47;;
43226;SDS011;28839;52.404;9.808;2022-10-22T16:33:52;6.47;;;2.20;;
43226;SDS011;28839;52.404;9.808;2022-10-22T16:40:46;6.53;;;2.15;;
43226;SDS011;28839;52.404;9.808;2022-10-22T16:47:41;6.90;;;2.78;;
43226;SDS011;28839;52.404;9.808;2022-10-22T16:54:39;9.73;;;2.90;;
43226;SDS011;28839;52.404;9.808;2022-10-22T17:01:33;8.52;;;2.90;;
43226;SDS011;28839;52.404;9.808;2022-10-22T17:08:27;6.33;;;3.17;;
43226;SDS011;28839;52.404;9.808;2022-10-22T17:15:22;7.57;;;2.87;;
43226;SDS011;28839;52.404;9.808;2022-10-22T17:22:15;6.53;;;2.90;;
43226;SDS011;28839;52.404;9.808;2022-10-22T17:29:09;10.53;;;5.17;;
43226;SDS011;28839;52.404;9.808;2022-10-22T17:36:06;9.57;;;5.00;;
43226;SDS011;28839;52.404;9.808;2022-10-22T17:43:03;7.07;;;3.72;;
43226;SDS011;28839;52.404;9.808;2022-10-22T17:49:56;8.83;;;4.43;;
43226;SDS011;28839;52.404;9.808;2022-10-22T17:56:52;9.13;;;4.00;;
43226;SDS011;28839;52.404;9.808;2022-10-22T18:03:47;14.15;;;5.30;;
43226;SDS011;28839;52.404;9.808;2022-10-22T18:10:41;7.05;;;4.22;;
43226;SDS011;28839;52.404;9.808;2022-10-22T18:17:36;10.27;;;4.27;;
43226;SDS011;28839;52.404;9.808;2022-10-22T18:24:31;7.20;;;3.72;;
43226;SDS011;28839;52.404;9.808;2022-10-22T18:31:25;12.70;;;3.53;;
43226;SDS011;28839;52.404;9.808;2022-10-22T18:38:22;11.12;;;3.65;;
43226;SDS011;28839;52.404;9.808;2022-10-22T18:45:16;8.13;;;3.67;;
43226;SDS011;28839;52.404;9.808;2022-10-22T18:52:10;9.73;;;4.37;;
43226;SDS011;28839;52.404;9.808;2022-10-22T18:59:05;8.60;;;4.80;;
43226;SDS011;28839;52.404;9.808;2022-10-22T19:06:05;12.02;;;6.50;;
43226;SDS011;28839;52.404;9.808;2022-10-22T19:12:59;10.10;;;5.07;;
43226;SDS011;28839;52.404;9.808;2022-10-22T19:19:54;8.67;;;4.07;;
43226;SDS011;28839;52.404;9.808;2022-10-22T19:26:48;12.65;;;4.75;;
43226;SDS011;28839;52.404;9.808;2022-10-22T19:33:42;10.60;;;4.12;;
43226;SDS011;28839;52.404;9.808;2022-10-22T19:40:40;6.45;;;3.75;;
43226;SDS011;28839;52.404;9.808;2022-10-22T19:47:34;8.95;;;3.03;;
43226;SDS011;28839;52.404;9.808;2022-10-22T19:54:28;6.00;;;3.05;;
43226;SDS011;28839;52.404;9.808;2022-10-22T20:01:24;8.57;;;2.83;;
43226;SDS011;28839;52.404;9.808;2022-10-22T20:08:18;7.85;;;3.35;;
43226;SDS011;28839;52.404;9.808;2022-10-22T20:15:12;6.87;;;2.70;;
43226;SDS011;28839;52.404;9.808;2022-10-22T20:22:09;11.45;;;2.50;;
43226;SDS011;28839;52.404;9.808;2022-10-22T20:29:04;7.75;;;2.30;;
43226;SDS011;28839;52.404;9.808;2022-10-22T20:35:59;9.45;;;3.17;;
43226;SDS011;28839;52.404;9.808;2022-10-22T20:42:54;8.77;;;3.15;;
43226;SDS011;28839;52.404;9.808;2022-10-22T20:49:48;5.57;;;2.60;;
43226;SDS011;28839;52.404;9.808;2022-10-22T20:56:42;8.07;;;2.20;;
43226;SDS011;28839;52.404;9.808;2022-10-22T21:03:37;8.00;;;2.70;;
43226;SDS011;28839;52.404;9.808;2022-10-22T21:10:32;6.62;;;4.53;;
43226;SDS011;28839;52.404;9.808;2022-10-22T21:17:26;10.07;;;5.40;;
43226;SDS011;28839;52.404;9.808;2022-10-22T21:24:21;11.23;;;3.80;;
43226;SDS011;28839;52.404;9.808;2022-10-22T21:31:17;10.13;;;4.15;;
43226;SDS011;28839;52.404;9.808;2022-10-22T21:38:12;7.20;;;2.95;;
43226;SDS011;28839;52.404;9.808;2022-10-22T21:45:08;6.37;;;4.53;;
43226;SDS011;28839;52.404;9.808;2022-10-22T21:52:02;8.57;;;4.60;;
43226;SDS011;28839;52.404;9.808;2022-10-22T21:58:58;8.52;;;4.62;;
43226;SDS011;28839;52.404;9.808;2022-10-22T22:05:57;6.60;;;4.30;;
43226;SDS011;28839;52.404;9.808;2022-10-22T22:12:51;9.32;;;3.67;;
43226;SDS011;28839;52.404;9.808;2022-10-22T22:19:45;6.47;;;4.73;;
43226;SDS011;28839;52.404;9.808;2022-10-22T22:26:40;8.30;;;5.10;;
43226;SDS011;28839;52.404;9.808;2022-10-22T22:33:34;6.93;;;4.00;;
43226;SDS011;28839;52.404;9.808;2022-10-22T22:40:28;6.40;;;4.57;;
43226;SDS011;28839;52.404;9.808;2022-10-22T22:47:23;6.87;;;3.90;;
43226;SDS011;28839;52.404;9.808;2022-10-22T22:54:17;13.80;;;4.25;;
43226;SDS011;28839;52.404;9.808;2022-10-22T23:01:12;12.45;;;4.68;;
43226;SDS011;28839;52.404;9.808;2022-10-22T23:08:10;8.98;;;4.53;;
43226;SDS011;28839;52.404;9.808;2022-10-22T23:15:04;6.72;;;4.95;;
43226;SDS011;28839;52.404;9.808;2022-10-22T23:28:54;8.48;;;4.35;;
43226;SDS011;28839;52.404;9.808;2022-10-22T23:35:51;9.60;;;4.68;;
43226;SDS011;28839;52.404;9.808;2022-10-22T23:42:45;13.47;;;5.70;;
43226;SDS011;28839;52.404;9.808;2022-10-22T23:49:40;11.03;;;4.43;;
43226;SDS011;28839;52.404;9.808;2022-10-22T23:56:34;7.82;;;4.70;;
